createdAt,value
2019-04-03T00:00:27.984Z,98.30
2019-04-03T00:02:54.018Z,98.40
2019-04-03T00:05:20.100Z,98.10
2019-04-03T00:07:46.143Z,98.00
2019-04-03T00:10:12.383Z,97.90
2019-04-03T00:12:40.448Z,98.40
2019-04-03T00:15:06.631Z,98.60
2019-04-03T00:17:32.678Z,98.40
2019-04-03T00:19:58.761Z,99.00
2019-04-03T00:22:24.888Z,99.20
2019-04-03T00:24:52.630Z,99.90
2019-04-03T00:27:19.078Z,99.90
2019-04-03T00:29:45.129Z,99.80
2019-04-03T00:32:11.170Z,99.90
2019-04-03T00:34:37.355Z,99.90
2019-04-03T00:37:03.489Z,99.90
2019-04-03T00:39:29.549Z,99.90
2019-04-03T00:41:55.625Z,99.90
2019-04-03T00:44:23.988Z,99.90
2019-04-03T00:46:49.633Z,99.90
2019-04-03T00:49:16.076Z,99.90
2019-04-03T00:51:42.624Z,99.90
2019-04-03T00:54:08.771Z,99.90
2019-04-03T00:56:34.896Z,99.90
2019-04-03T00:59:01.006Z,99.90
2019-04-03T01:01:27.045Z,99.90
2019-04-03T01:03:53.166Z,99.90
2019-04-03T01:06:19.358Z,99.90
2019-04-03T01:08:45.462Z,99.90
2019-04-03T01:11:11.734Z,99.90
2019-04-03T01:13:37.847Z,99.90
2019-04-03T01:16:04.334Z,99.90
2019-04-03T01:18:30.544Z,99.90
2019-04-03T01:20:56.582Z,99.90
2019-04-03T01:23:22.625Z,99.90
2019-04-03T01:25:49.196Z,99.90
2019-04-03T01:28:15.295Z,99.90
2019-04-03T01:30:43.828Z,99.90
2019-04-03T01:33:09.366Z,99.90
2019-04-03T01:35:35.414Z,99.90
2019-04-03T01:38:01.477Z,99.90
2019-04-03T01:40:27.561Z,99.90
2019-04-03T01:42:53.666Z,99.90
2019-04-03T01:45:19.766Z,99.90
2019-04-03T01:47:46.038Z,99.90
2019-04-03T01:50:12.477Z,99.90
2019-04-03T01:52:38.534Z,99.90
2019-04-03T01:55:04.994Z,99.90
2019-04-03T01:57:31.038Z,99.90
2019-04-03T01:59:57.102Z,99.90
2019-04-03T02:02:23.168Z,99.90
2019-04-03T02:04:49.215Z,99.90
2019-04-03T02:07:15.249Z,99.90
2019-04-03T02:09:41.370Z,99.90
2019-04-03T02:12:07.503Z,99.90
2019-04-03T02:14:33.586Z,99.90
2019-04-03T02:16:59.667Z,99.90
2019-04-03T02:19:26.593Z,99.90
2019-04-03T02:21:52.781Z,99.90
2019-04-03T02:24:19.108Z,99.90
2019-04-03T02:26:45.219Z,99.90
2019-04-03T02:29:11.452Z,99.90
2019-04-03T02:31:38.051Z,99.90
2019-04-03T02:34:04.108Z,99.90
2019-04-03T02:36:30.259Z,99.90
2019-04-03T02:38:56.390Z,99.90
2019-04-03T02:41:22.430Z,99.90
2019-04-03T02:43:48.469Z,99.90
2019-04-03T02:46:14.690Z,99.90
2019-04-03T02:48:40.931Z,99.90
2019-04-03T02:51:06.973Z,99.90
2019-04-03T02:53:33.401Z,99.90
2019-04-03T02:55:59.712Z,99.90
2019-04-03T02:58:25.928Z,99.90
2019-04-03T03:00:52.274Z,99.90
2019-04-03T03:03:18.627Z,99.90
2019-04-03T03:05:44.700Z,99.90
2019-04-03T03:08:10.754Z,99.90
2019-04-03T03:10:37.270Z,99.90
2019-04-03T03:13:03.678Z,99.90
2019-04-03T03:15:29.942Z,99.90
2019-04-03T03:17:56.441Z,99.90
2019-04-03T03:20:23.394Z,99.90
2019-04-03T03:22:51.167Z,99.90
2019-04-03T03:25:18.438Z,99.90
2019-04-03T03:27:45.706Z,99.90
2019-04-03T03:30:33.027Z,99.90
2019-04-03T03:32:40.941Z,99.90
2019-04-03T03:35:13.296Z,99.90
2019-04-03T03:37:36.318Z,99.90
2019-04-03T03:40:04.569Z,99.90
2019-04-03T03:42:32.103Z,99.90
2019-04-03T03:45:02.073Z,99.90
2019-04-03T03:47:34.267Z,99.90
2019-04-03T03:50:00.528Z,99.90
2019-04-03T03:52:26.966Z,99.90
2019-04-03T03:54:53.721Z,99.90
2019-04-03T03:57:20.430Z,99.90
2019-04-03T03:59:51.438Z,99.90
2019-04-03T04:02:16.423Z,99.90
2019-04-03T04:04:46.659Z,99.90
2019-04-03T04:07:10.550Z,99.90
2019-04-03T04:09:36.806Z,99.90
2019-04-03T04:12:05.977Z,99.90
2019-04-03T04:14:30.835Z,99.90
2019-04-03T04:16:57.067Z,99.90
2019-04-03T04:19:23.518Z,99.90
2019-04-03T04:21:49.654Z,99.90
2019-04-03T04:24:16.199Z,99.90
2019-04-03T04:26:42.553Z,99.90
2019-04-03T04:29:10.646Z,99.90
2019-04-03T04:31:36.739Z,99.90
2019-04-03T04:34:03.017Z,99.90
2019-04-03T04:36:29.057Z,99.90
2019-04-03T04:38:55.828Z,99.90
2019-04-03T04:41:23.646Z,99.90
2019-04-03T04:43:49.721Z,99.90
2019-04-03T04:46:15.770Z,99.90
2019-04-03T04:48:41.997Z,99.90
2019-04-03T04:51:08.397Z,99.90
2019-04-03T04:53:34.452Z,99.90
2019-04-03T04:56:00.537Z,99.90
2019-04-03T04:58:26.586Z,99.90
2019-04-03T05:00:53.688Z,99.90
2019-04-03T05:03:21.850Z,99.90
2019-04-03T05:05:48.088Z,99.90
2019-04-03T05:08:14.203Z,99.90
2019-04-03T05:10:40.611Z,99.90
2019-04-03T05:13:06.709Z,99.90
2019-04-03T05:15:32.957Z,99.90
2019-04-03T05:17:59.146Z,99.90
2019-04-03T05:20:25.188Z,99.90
2019-04-03T05:22:51.439Z,99.90
2019-04-03T05:25:17.618Z,99.90
2019-04-03T05:27:43.932Z,99.90
2019-04-03T05:30:10.306Z,99.90
2019-04-03T05:32:36.782Z,99.90
2019-04-03T05:35:04.605Z,99.90
2019-04-03T05:37:31.367Z,99.90
2019-04-03T05:39:57.842Z,99.90
2019-04-03T05:42:23.920Z,99.90
2019-04-03T05:44:49.962Z,99.90
2019-04-03T05:47:16.252Z,99.90
2019-04-03T05:49:42.519Z,99.90
2019-04-03T05:52:08.661Z,99.90
2019-04-03T05:54:35.015Z,99.90
2019-04-03T05:57:01.059Z,99.90
2019-04-03T05:59:27.114Z,99.90
2019-04-03T06:01:53.169Z,99.90
2019-04-03T06:04:19.515Z,99.90
2019-04-03T06:06:46.874Z,99.90
2019-04-03T06:09:13.569Z,99.90
2019-04-03T06:11:40.535Z,99.90
2019-04-03T06:14:08.785Z,99.90
2019-04-03T06:16:35.385Z,99.90
2019-04-03T06:19:01.506Z,99.90
2019-04-03T06:21:27.551Z,99.90
2019-04-03T06:23:53.973Z,99.90
2019-04-03T06:26:20.087Z,99.90
2019-04-03T06:28:47.610Z,99.90
2019-04-03T06:31:13.958Z,99.90
2019-04-03T06:33:40.087Z,99.90
2019-04-03T06:36:06.403Z,99.90
2019-04-03T06:38:32.602Z,99.90
2019-04-03T06:40:58.650Z,99.90
2019-04-03T06:43:24.772Z,99.90
2019-04-03T06:45:51.025Z,99.90
2019-04-03T06:48:17.060Z,99.90
2019-04-03T06:50:43.672Z,99.90
2019-04-03T06:53:09.802Z,99.90
2019-04-03T06:55:36.539Z,99.90
2019-04-03T06:58:02.739Z,99.90
2019-04-03T07:00:28.888Z,99.90
2019-04-03T07:02:55.311Z,99.90
2019-04-03T07:05:22.083Z,99.90
2019-04-03T07:07:48.223Z,99.90
2019-04-03T07:10:24.015Z,99.90
2019-04-03T07:12:42.443Z,99.90
2019-04-03T07:15:09.033Z,99.90
2019-04-03T07:17:35.077Z,99.90
2019-04-03T07:20:12.509Z,99.90
2019-04-03T07:22:29.334Z,99.90
2019-04-03T07:24:55.391Z,99.90
2019-04-03T07:27:21.603Z,99.90
2019-04-03T07:29:49.321Z,99.90
2019-04-03T07:32:15.749Z,99.90
2019-04-03T07:34:41.880Z,99.90
2019-04-03T07:37:07.947Z,99.90
2019-04-03T07:39:33.994Z,99.90
2019-04-03T07:42:00.455Z,99.90
2019-04-03T07:44:29.156Z,99.90
2019-04-03T07:46:55.289Z,99.90
2019-04-03T07:49:21.894Z,99.90
2019-04-03T07:51:48.663Z,99.80
2019-04-03T07:54:14.884Z,98.10
2019-04-03T07:56:40.984Z,95.60
2019-04-03T07:59:07.096Z,94.50
2019-04-03T08:01:33.139Z,95.10
2019-04-03T08:03:59.194Z,95.40
2019-04-03T08:06:25.547Z,96.30
2019-04-03T08:09:05.615Z,98.60
2019-04-03T08:11:19.647Z,97.90
2019-04-03T08:13:45.966Z,95.00
2019-04-03T08:16:12.112Z,92.20
2019-04-03T08:18:38.166Z,92.70
2019-04-03T08:21:04.275Z,89.20
2019-04-03T08:23:30.459Z,82.20
2019-04-03T08:25:56.872Z,74.50
2019-04-03T08:28:25.990Z,66.60
2019-04-03T08:30:51.306Z,61.40
2019-04-03T08:33:19.794Z,58.30
2019-04-03T08:35:45.534Z,55.00
2019-04-03T08:38:13.422Z,54.60
2019-04-03T08:40:39.526Z,52.90
2019-04-03T08:43:05.640Z,51.50
2019-04-03T08:45:31.911Z,50.20
2019-04-03T08:47:58.543Z,51.10
2019-04-03T08:50:24.734Z,48.60
2019-04-03T08:52:50.868Z,47.90
2019-04-03T08:55:17.171Z,46.30
2019-04-03T08:57:45.864Z,46.60
2019-04-03T09:00:12.077Z,50.40
2019-04-03T09:02:38.242Z,49.80
2019-04-03T09:05:05.726Z,46.90
2019-04-03T09:07:31.818Z,46.60
2019-04-03T09:10:00.416Z,44.20
2019-04-03T09:12:30.282Z,43.80
2019-04-03T09:14:57.032Z,43.80
2019-04-03T09:17:23.939Z,40.50
2019-04-03T09:19:50.362Z,39.30
2019-04-03T09:22:16.488Z,38.30
2019-04-03T09:24:43.059Z,37.60
2019-04-03T09:27:10.065Z,37.50
2019-04-03T09:29:36.629Z,38.50
2019-04-03T09:32:02.779Z,37.70
2019-04-03T09:34:30.054Z,40.10
2019-04-03T09:36:56.834Z,40.10
2019-04-03T09:39:22.930Z,40.50
2019-04-03T09:41:50.918Z,39.40
2019-04-03T09:44:17.091Z,39.30
2019-04-03T09:46:44.701Z,39.60
2019-04-03T09:49:11.253Z,38.80
2019-04-03T09:51:37.494Z,39.20
2019-04-03T09:54:03.851Z,38.60
2019-04-03T09:56:30.213Z,36.40
2019-04-03T09:58:56.768Z,34.20
2019-04-03T10:01:22.942Z,33.40
2019-04-03T10:03:49.274Z,33.30
2019-04-03T10:06:15.321Z,33.60
2019-04-03T10:08:41.602Z,34.00
2019-04-03T10:11:08.267Z,34.40
2019-04-03T10:13:34.382Z,34.50
2019-04-03T10:16:03.229Z,33.40
2019-04-03T10:18:28.402Z,32.10
2019-04-03T10:20:54.561Z,32.70
2019-04-03T10:23:20.734Z,32.60
2019-04-03T10:25:46.997Z,30.90
2019-04-03T10:28:14.800Z,33.80
2019-04-03T10:30:41.027Z,35.60
2019-04-03T10:33:07.258Z,36.30
2019-04-03T10:35:33.404Z,33.80
2019-04-03T10:37:59.741Z,35.20
2019-04-03T10:40:26.394Z,37.00
2019-04-03T10:42:52.697Z,36.70
2019-04-03T10:45:19.119Z,39.50
2019-04-03T10:47:45.723Z,38.70
2019-04-03T10:50:12.202Z,37.60
2019-04-03T10:52:38.350Z,36.60
2019-04-03T10:55:06.900Z,35.70
2019-04-03T10:57:33.936Z,34.00
2019-04-03T11:00:01.094Z,32.50
2019-04-03T11:02:27.544Z,33.80
2019-04-03T11:04:53.703Z,35.80
2019-04-03T11:07:19.766Z,35.80
2019-04-03T11:09:45.933Z,35.30
2019-04-03T11:12:11.957Z,36.10
2019-04-03T11:14:39.223Z,35.90
2019-04-03T11:17:05.978Z,34.20
2019-04-03T11:19:32.240Z,33.90
2019-04-03T11:21:58.346Z,35.30
2019-04-03T11:24:24.526Z,33.90
2019-04-03T11:26:52.033Z,33.40
2019-04-03T11:29:18.569Z,34.00
2019-04-03T11:31:45.423Z,33.20
2019-04-03T11:34:11.502Z,33.80
2019-04-03T11:36:37.635Z,32.60
2019-04-03T11:39:13.544Z,34.40
2019-04-03T11:41:35.607Z,34.90
2019-04-03T11:44:01.714Z,35.00
2019-04-03T11:46:27.829Z,35.20
2019-04-03T11:48:54.247Z,35.30
2019-04-03T11:51:20.418Z,36.50
2019-04-03T11:53:47.145Z,33.40
2019-04-03T11:56:14.015Z,33.90
2019-04-03T11:58:40.246Z,33.90
2019-04-03T12:01:07.701Z,33.90
2019-04-03T12:03:33.807Z,35.00
2019-04-03T12:05:59.837Z,35.70
2019-04-03T12:08:28.507Z,35.80
2019-04-03T12:10:53.981Z,37.20
2019-04-03T12:13:21.783Z,36.70
2019-04-03T12:15:47.993Z,37.80
2019-04-03T12:18:14.095Z,38.00
2019-04-03T12:20:43.737Z,36.60
2019-04-03T12:23:08.491Z,36.70
2019-04-03T12:25:36.457Z,37.20
2019-04-03T12:28:02.605Z,36.10
2019-04-03T12:30:29.313Z,38.80
2019-04-03T12:32:55.697Z,36.90
2019-04-03T12:35:21.826Z,37.40
2019-04-03T12:37:50.197Z,38.20
2019-04-03T12:40:16.258Z,36.00
2019-04-03T12:42:42.323Z,36.20
2019-04-03T12:45:08.717Z,37.60
2019-04-03T12:47:34.767Z,38.60
2019-04-03T12:50:00.905Z,37.00
2019-04-03T12:52:26.993Z,36.50
2019-04-03T12:54:54.564Z,36.50
2019-04-03T12:57:21.188Z,36.50
2019-04-03T12:59:48.142Z,37.40
2019-04-03T13:02:14.723Z,36.90
2019-04-03T13:04:40.897Z,36.90
2019-04-03T13:07:07.387Z,36.40
2019-04-03T13:09:33.532Z,37.80
2019-04-03T13:12:00.179Z,38.50
2019-04-03T13:14:27.626Z,36.30
2019-04-03T13:16:54.353Z,37.80
2019-04-03T13:19:20.407Z,37.80
2019-04-03T13:21:46.558Z,37.50
2019-04-03T13:24:12.707Z,36.80
2019-04-03T13:26:39.161Z,36.50
2019-04-03T13:29:08.602Z,36.00
2019-04-03T13:31:33.410Z,36.80
2019-04-03T13:33:59.453Z,35.70
2019-04-03T13:36:25.558Z,35.10
2019-04-03T13:38:51.816Z,36.30
2019-04-03T13:41:17.956Z,36.20
2019-04-03T13:43:44.162Z,36.20
2019-04-03T13:46:10.206Z,34.30
2019-04-03T13:48:36.274Z,35.90
2019-04-03T13:51:03.001Z,36.80
2019-04-03T13:53:29.289Z,36.30
2019-04-03T13:55:55.773Z,36.50
2019-04-03T13:58:22.132Z,36.00
2019-04-03T14:00:59.386Z,35.10
2019-04-03T14:03:18.149Z,34.90
2019-04-03T14:05:44.503Z,36.40
2019-04-03T14:08:12.142Z,37.60
2019-04-03T14:10:38.715Z,38.40
2019-04-03T14:13:04.960Z,38.20
2019-04-03T14:15:31.174Z,38.90
2019-04-03T14:17:59.072Z,38.80
2019-04-03T14:20:25.877Z,39.20
2019-04-03T14:22:52.241Z,38.90
2019-04-03T14:25:22.294Z,39.00
2019-04-03T14:27:46.533Z,39.30
2019-04-03T14:30:13.209Z,39.40
2019-04-03T14:32:39.330Z,39.60
2019-04-03T14:35:38.463Z,39.20
2019-04-03T14:37:34.490Z,39.30
2019-04-03T14:40:00.559Z,40.10
2019-04-03T14:42:27.351Z,39.50
2019-04-03T14:44:53.477Z,39.10
2019-04-03T14:47:20.165Z,38.70
2019-04-03T14:49:47.682Z,39.20
2019-04-03T14:52:15.015Z,38.80
2019-04-03T14:54:41.946Z,38.90
2019-04-03T14:57:17.965Z,39.70
2019-04-03T14:59:36.113Z,39.50
2019-04-03T15:02:02.571Z,39.70
2019-04-03T15:04:32.525Z,39.50
2019-04-03T15:07:03.546Z,40.30
2019-04-03T15:09:27.047Z,39.90
2019-04-03T15:11:52.893Z,40.50
2019-04-03T15:14:21.877Z,39.90
2019-04-03T15:16:46.886Z,40.30
2019-04-03T15:19:14.099Z,40.30
2019-04-03T15:21:40.961Z,39.80
2019-04-03T15:24:07.023Z,39.50
2019-04-03T15:26:33.141Z,40.00
2019-04-03T15:28:59.948Z,40.60
2019-04-03T15:31:27.124Z,40.60
2019-04-03T15:33:55.436Z,39.70
2019-04-03T15:36:21.540Z,39.50
2019-04-03T15:38:47.694Z,39.50
2019-04-03T15:41:13.891Z,40.20
2019-04-03T15:43:39.935Z,39.70
2019-04-03T15:46:06.473Z,39.70
2019-04-03T15:48:33.308Z,40.50
2019-04-03T15:51:00.308Z,40.10
2019-04-03T15:53:26.996Z,40.50
2019-04-03T15:55:53.452Z,40.40
2019-04-03T15:58:19.630Z,39.90
2019-04-03T16:00:45.834Z,39.90
2019-04-03T16:03:12.005Z,40.10
2019-04-03T16:05:38.588Z,39.80
2019-04-03T16:08:05.718Z,39.30
2019-04-03T16:10:31.900Z,39.70
2019-04-03T16:12:57.952Z,40.30
2019-04-03T16:15:24.558Z,40.40
2019-04-03T16:17:50.769Z,40.70
2019-04-03T16:20:17.734Z,41.20
2019-04-03T16:22:44.571Z,41.50
2019-04-03T16:25:11.186Z,41.60
2019-04-03T16:27:37.435Z,42.20
2019-04-03T16:30:08.328Z,42.70
2019-04-03T16:32:34.490Z,42.90
2019-04-03T16:35:00.529Z,43.00
2019-04-03T16:37:26.654Z,43.40
2019-04-03T16:39:52.695Z,43.40
2019-04-03T16:42:19.106Z,43.60
2019-04-03T16:44:45.756Z,43.90
2019-04-03T16:47:13.026Z,44.10
2019-04-03T16:49:40.214Z,44.30
2019-04-03T16:52:06.339Z,44.40
2019-04-03T16:54:33.586Z,44.60
2019-04-03T16:57:00.637Z,45.30
2019-04-03T16:59:27.963Z,45.40
2019-04-03T17:01:54.523Z,45.80
2019-04-03T17:04:27.004Z,46.40
2019-04-03T17:06:49.111Z,46.40
2019-04-03T17:09:15.658Z,46.70
2019-04-03T17:11:44.925Z,47.00
2019-04-03T17:14:09.671Z,47.80
2019-04-03T17:16:37.385Z,47.60
2019-04-03T17:19:04.210Z,47.50
2019-04-03T17:21:36.917Z,47.50
2019-04-03T17:23:58.995Z,47.70
2019-04-03T17:26:25.089Z,47.80
2019-04-03T17:29:01.928Z,47.90
2019-04-03T17:31:21.611Z,47.90
2019-04-03T17:33:47.323Z,48.20
2019-04-03T17:36:13.437Z,48.60
2019-04-03T17:38:40.278Z,48.50
2019-04-03T17:41:07.128Z,49.20
2019-04-03T17:43:33.486Z,49.00
2019-04-03T17:45:59.918Z,48.50
2019-04-03T17:48:25.973Z,48.80
2019-04-03T17:50:52.013Z,49.50
2019-04-03T17:53:18.318Z,48.90
2019-04-03T17:55:45.486Z,48.90
2019-04-03T17:58:11.674Z,49.30
2019-04-03T18:00:37.802Z,49.40
2019-04-03T18:03:03.849Z,50.30
2019-04-03T18:05:29.895Z,50.20
2019-04-03T18:07:58.637Z,49.90
2019-04-03T18:10:23.891Z,49.80
2019-04-03T18:12:52.055Z,50.50
2019-04-03T18:15:18.022Z,50.30
2019-04-03T18:17:44.052Z,50.50
2019-04-03T18:20:12.498Z,51.10
2019-04-03T18:22:38.622Z,51.00
2019-04-03T18:25:08.346Z,50.70
2019-04-03T18:27:34.625Z,50.70
2019-04-03T18:30:00.787Z,51.20
2019-04-03T18:32:29.702Z,51.30
2019-04-03T18:34:55.523Z,52.60
2019-04-03T18:37:22.029Z,51.50
2019-04-03T18:39:48.135Z,52.00
2019-04-03T18:42:14.184Z,52.30
2019-04-03T18:44:40.304Z,52.50
2019-04-03T18:47:06.767Z,53.10
2019-04-03T18:49:33.422Z,53.00
2019-04-03T18:51:59.629Z,53.60
2019-04-03T18:54:25.705Z,52.90
2019-04-03T18:56:52.020Z,53.20
2019-04-03T18:59:18.158Z,53.20
2019-04-03T19:01:44.211Z,53.90
2019-04-03T19:04:10.262Z,54.10
2019-04-03T19:06:36.326Z,54.40
2019-04-03T19:09:10.043Z,54.80
2019-04-03T19:11:34.484Z,54.50
2019-04-03T19:14:00.703Z,54.00
2019-04-03T19:16:29.879Z,54.60
2019-04-03T19:19:07.091Z,55.00
2019-04-03T19:21:25.509Z,54.90
2019-04-03T19:23:53.682Z,55.10
2019-04-03T19:26:18.553Z,55.70
2019-04-03T19:28:44.790Z,55.60
2019-04-03T19:31:10.849Z,56.00
2019-04-03T19:33:36.869Z,56.60
2019-04-03T19:36:03.166Z,56.90
2019-04-03T19:38:29.221Z,56.50
2019-04-03T19:40:55.260Z,56.50
2019-04-03T19:43:21.382Z,57.00
2019-04-03T19:45:47.434Z,56.60
2019-04-03T19:48:13.491Z,56.50
2019-04-03T19:50:40.818Z,57.30
2019-04-03T19:55:43.367Z,56.40
2019-04-03T19:58:11.808Z,56.10
2019-04-03T20:00:40.214Z,56.10
2019-04-03T20:03:08.702Z,56.20
2019-04-03T20:05:37.135Z,56.10
2019-04-03T20:08:05.631Z,56.40
2019-04-03T20:10:34.458Z,57.00
2019-04-03T20:13:02.943Z,57.60
2019-04-03T20:15:31.367Z,58.60
2019-04-03T20:17:59.822Z,57.70
2019-04-03T20:20:31.469Z,57.40
2019-04-03T20:22:58.415Z,57.20
2019-04-03T20:25:26.874Z,57.90
2019-04-03T20:27:57.056Z,57.70
2019-04-03T20:30:25.458Z,58.00
2019-04-03T20:32:54.018Z,58.10
2019-04-03T20:35:22.443Z,58.20
2019-04-03T20:37:50.866Z,58.90
2019-04-03T20:40:19.351Z,58.70
2019-04-03T20:42:47.778Z,58.90
2019-04-03T20:45:18.792Z,59.30
2019-04-03T20:47:46.445Z,59.60
2019-04-03T20:50:16.242Z,60.20
2019-04-03T20:52:46.307Z,60.80
2019-04-03T20:55:15.062Z,60.90
2019-04-03T20:57:54.948Z,61.80
2019-04-03T21:00:18.074Z,62.90
2019-04-03T21:02:45.658Z,62.30
2019-04-03T21:05:14.150Z,64.20
2019-04-03T21:07:42.574Z,64.80
2019-04-03T21:10:11.286Z,65.10
2019-04-03T21:12:39.698Z,65.90
2019-04-03T21:15:09.323Z,67.50
2019-04-03T21:17:38.058Z,67.80
2019-04-03T21:20:06.832Z,69.40
2019-04-03T21:22:35.265Z,69.70
2019-04-03T21:25:06.108Z,71.50
2019-04-03T21:27:34.682Z,74.90
2019-04-03T21:30:03.762Z,83.00
2019-04-03T21:32:32.498Z,93.90
2019-04-03T21:35:03.083Z,99.90
2019-04-03T21:37:31.039Z,99.90
2019-04-03T21:40:04.322Z,99.90
2019-04-03T21:42:29.773Z,99.90
2019-04-03T21:44:58.188Z,99.90
2019-04-03T21:47:26.609Z,99.90
2019-04-03T21:49:55.026Z,99.90
2019-04-03T21:52:23.552Z,99.90
2019-04-03T21:54:52.125Z,99.90
2019-04-03T21:57:20.542Z,99.90
2019-04-03T21:59:48.969Z,99.90
2019-04-03T22:02:17.522Z,99.90
2019-04-03T22:04:45.961Z,99.90
2019-04-03T22:07:14.441Z,99.90
2019-04-03T22:09:42.911Z,99.90
2019-04-03T22:12:11.320Z,99.90
2019-04-03T22:14:40.979Z,99.90
2019-04-03T22:17:10.087Z,99.90
2019-04-03T22:19:38.553Z,99.90
2019-04-03T22:22:06.989Z,99.90
2019-04-03T22:24:37.521Z,99.90
2019-04-03T22:27:05.666Z,99.90
2019-04-03T22:32:59.275Z,99.90
2019-04-03T22:35:28.073Z,99.90
2019-04-03T22:37:56.685Z,99.90
2019-04-03T22:40:25.268Z,99.90
2019-04-03T22:42:53.709Z,99.90
2019-04-03T22:45:22.162Z,99.90
2019-04-03T22:47:50.627Z,99.90
2019-04-03T22:50:19.070Z,99.90
2019-04-03T22:52:47.475Z,99.90
2019-04-03T22:55:15.947Z,99.90
2019-04-03T22:57:44.659Z,99.90
2019-04-03T23:00:13.222Z,99.90
2019-04-03T23:02:41.875Z,99.90
2019-04-03T23:05:10.326Z,99.90
2019-04-03T23:07:38.802Z,99.90
2019-04-03T23:10:07.598Z,99.90
2019-04-03T23:12:35.997Z,99.90
2019-04-03T23:15:08.713Z,99.90
2019-04-03T23:17:36.480Z,99.90
2019-04-03T23:20:05.937Z,99.90
2019-04-03T23:22:34.354Z,99.90
2019-04-03T23:25:02.955Z,99.90
2019-04-03T23:27:32.888Z,99.90
2019-04-03T23:30:01.571Z,99.90
2019-04-03T23:32:30.173Z,99.90
2019-04-03T23:34:58.581Z,99.90
2019-04-03T23:37:26.993Z,99.90
2019-04-03T23:39:55.593Z,99.90
2019-04-03T23:42:23.994Z,99.90
2019-04-03T23:44:52.971Z,99.90
2019-04-03T23:47:21.727Z,99.90
2019-04-03T23:49:51.094Z,99.90
2019-04-03T23:52:20.175Z,99.90
2019-04-03T23:54:48.754Z,99.90
2019-04-03T23:57:17.216Z,99.90
2019-04-03T23:59:45.729Z,99.90
